version 	 v4_39_0 	# version of IOP
mjd           54749

camRow 	 1 	# camera Row (filter)
camCol 	 4 	# camera Col (dewar)

initialTime    1223571032
cameraNaN     -9999
 
typedef enum { 
 	OUTOFSPEC = 7,
 	TOL_RAW = 8,
 	READ = 1,
 	READ_RAW = 2,
 	NOM = 3,
 	BIAS = 5,
 	TOL = 6,
 	NOM_RAW = 4
} VOLTTYPE;
 
typedef struct {
    double timeSeq;
    VOLTTYPE voltType;
    double ln2temp;
    double heaterv;
    double ccdtemp;
    double tset;
    double tzero;
    double iMtrim2;
    double iMtrim1;
    double iPtrim2;
    double iPtrim1;
    double vswM;
    double vlg;
    double vtM;
    double vtP;
    double vp3M;
    double vp12M;
    double vp3P;
    double vp12P;
    double vsM;
    double vsP;
    double vr;
    double vrd2;
    double vrd1;
    double vdd2;
    double vdd1;
    double lowvsP;
    double vperase;
} VOLTAGES;
 
VOLTAGES 1223571031 READ 101.22 -9999 -75.39 76.20 -2.66 2.85 2.97 -4.73 -4.65 -4.98 -5.96 -5.96 7.01 -6.46 -6.46 8.50 5.49 -4.98 6.99 11.91 14.10 14.02 24.20 24.14 -9999 -9999
VOLTAGES 1223571031 OUTOFSPEC 0 0 0 0 0 0 0 0 0 0 0 0 0 0 0 0 0 0 0 0 0 0 0 0 0 0
VOLTAGES 1223571031 READ_RAW 574 -9999 319 448 376 658 664 270 274 257 207 207 871 181 181 947 793 257 870 817 873 871 925 924 -9999 -9999
VOLTAGES 1223571468 NOM 105.12 -9999 -74.61 75.42 -2.70 2.83 2.95 -4.73 -4.65 -5.00 -6.02 -6.02 6.95 -6.48 -6.48 8.48 5.47 -5.00 6.95 11.91 13.98 13.98 23.96 23.96 -9999 -9999
VOLTAGES 1223571468 NOM_RAW 584 -9999 321 446 374 657 663 270 274 256 204 204 868 180 180 946 792 256 868 817 870 870 921 921 -9999 -9999
VOLTAGES 1223571468 TOL 19.531 4.883 20.312 2.734 0.098 0.195 0.098 0.098 0.098 0.195 0.195 0.195 0.098 0.195 0.195 0.098 0.098 0.195 0.098 0.273 0.195 0.195 0.879 0.879 0.293 0.098
VOLTAGES 1223571468 TOL_RAW 50 250 52 7 5 10 5 5 5 10 10 10 5 10 10 5 5 10 5 7 5 5 15 15 15 5
VOLTAGES 1223571767 READ 102.78 -9999 -75.39 76.20 -2.68 2.85 2.97 -4.71 -4.63 -4.98 -5.96 -5.96 6.99 -6.46 -6.46 8.50 5.49 -4.98 6.99 11.91 14.06 14.02 24.20 24.14 -9999 -9999
VOLTAGES 1223571767 OUTOFSPEC 0 0 0 0 0 0 0 0 0 0 0 0 0 0 0 0 0 0 0 0 0 0 0 0 0 0
VOLTAGES 1223571767 READ_RAW 578 -9999 319 448 375 658 664 271 275 257 207 207 870 181 181 947 793 257 870 817 872 871 925 924 -9999 -9999
VOLTAGES 1223573085 READ 105.52 -9999 -75.39 76.20 -2.66 2.85 2.97 -4.71 -4.63 -4.96 -5.96 -5.96 7.01 -6.46 -6.46 8.50 5.49 -4.96 6.99 11.91 14.06 14.02 24.20 24.14 -9999 -9999
VOLTAGES 1223573085 OUTOFSPEC 0 0 0 0 0 0 0 0 0 0 0 0 0 0 0 0 0 0 0 0 0 0 0 0 0 0
VOLTAGES 1223573085 READ_RAW 585 -9999 319 448 376 658 664 271 275 258 207 207 871 181 181 947 793 258 870 817 872 871 925 924 -9999 -9999
VOLTAGES 1223573786 READ 100.05 -9999 -75.39 76.20 -2.68 2.85 2.97 -4.71 -4.63 -4.96 -5.96 -5.96 7.01 -6.46 -6.46 8.50 5.49 -4.96 6.99 11.95 14.06 14.02 24.26 24.14 -9999 -9999
VOLTAGES 1223573786 OUTOFSPEC 0 0 0 0 0 0 0 0 0 0 0 0 0 0 0 0 0 0 0 0 0 0 0 0 0 0
VOLTAGES 1223573786 READ_RAW 571 -9999 319 448 375 658 664 271 275 258 207 207 871 181 181 947 793 258 870 818 872 871 926 924 -9999 -9999
VOLTAGES 1223574486 READ 100.83 -9999 -75.39 76.20 -2.66 2.85 2.97 -4.71 -4.65 -4.98 -5.96 -5.96 7.01 -6.46 -6.46 8.50 5.51 -4.98 6.99 11.91 14.06 14.02 24.20 24.14 -9999 -9999
VOLTAGES 1223574486 OUTOFSPEC 0 0 0 0 0 0 0 0 0 0 0 0 0 0 0 0 0 0 0 0 0 0 0 0 0 0
VOLTAGES 1223574486 READ_RAW 573 -9999 319 448 376 658 664 271 274 257 207 207 871 181 181 947 794 257 870 817 872 871 925 924 -9999 -9999
VOLTAGES 1223575187 READ 102.00 -9999 -75.39 76.20 -2.66 2.85 2.97 -4.71 -4.63 -4.98 -5.96 -5.96 7.01 -6.46 -6.46 8.50 5.49 -4.96 6.99 11.91 14.06 14.02 24.20 24.14 -9999 -9999
VOLTAGES 1223575187 OUTOFSPEC 0 0 0 0 0 0 0 0 0 0 0 0 0 0 0 0 0 0 0 0 0 0 0 0 0 0
VOLTAGES 1223575187 READ_RAW 576 -9999 319 448 376 658 664 271 275 257 207 207 871 181 181 947 793 258 870 817 872 871 925 924 -9999 -9999
VOLTAGES 1223575888 READ 103.56 -9999 -75.39 76.20 -2.66 2.85 2.97 -4.71 -4.65 -4.98 -5.96 -5.96 7.01 -6.46 -6.46 8.50 5.49 -4.98 6.99 11.91 14.06 14.02 24.20 24.14 -9999 -9999
VOLTAGES 1223575888 OUTOFSPEC 0 0 0 0 0 0 0 0 0 0 0 0 0 0 0 0 0 0 0 0 0 0 0 0 0 0
VOLTAGES 1223575888 READ_RAW 580 -9999 319 448 376 658 664 271 274 257 207 207 871 181 181 947 793 257 870 817 872 871 925 924 -9999 -9999
VOLTAGES 1223576324 NOM 105.12 -9999 -74.61 75.42 -2.70 2.83 2.95 -4.73 -4.65 -5.00 -6.02 -6.02 6.95 -6.48 -6.48 8.48 5.47 -5.00 6.95 11.91 13.98 13.98 23.96 23.96 -9999 -9999
VOLTAGES 1223576324 NOM_RAW 584 -9999 321 446 374 657 663 270 274 256 204 204 868 180 180 946 792 256 868 817 870 870 921 921 -9999 -9999
VOLTAGES 1223576324 TOL 19.531 4.883 20.312 2.734 0.098 0.195 0.098 0.098 0.098 0.195 0.195 0.195 0.098 0.195 0.195 0.098 0.098 0.195 0.098 0.273 0.195 0.195 0.879 0.879 0.293 0.098
VOLTAGES 1223576324 TOL_RAW 50 250 52 7 5 10 5 5 5 10 10 10 5 10 10 5 5 10 5 7 5 5 15 15 15 5
VOLTAGES 1223576622 READ 105.12 -9999 -75.39 76.59 -2.66 2.85 2.97 -4.73 -4.63 -4.98 -5.96 -5.96 7.01 -6.46 -6.46 8.50 5.49 -4.98 6.99 11.91 14.06 14.02 24.20 24.14 -9999 -9999
VOLTAGES 1223576622 OUTOFSPEC 0 0 0 0 0 0 0 0 0 0 0 0 0 0 0 0 0 0 0 0 0 0 0 0 0 0
VOLTAGES 1223576622 READ_RAW 584 -9999 319 449 376 658 664 270 275 257 207 207 871 181 181 947 793 257 870 817 872 871 925 924 -9999 -9999
VOLTAGES 1223577323 READ 99.27 -9999 -75.39 76.20 -2.66 2.85 2.95 -4.71 -4.63 -4.96 -5.96 -5.94 6.99 -6.46 -6.46 8.50 5.49 -4.96 6.99 11.91 14.06 14.02 24.20 24.14 -9999 -9999
VOLTAGES 1223577323 OUTOFSPEC 0 0 0 0 0 0 0 0 0 0 0 0 0 0 0 0 0 0 0 0 0 0 0 0 0 0
VOLTAGES 1223577323 READ_RAW 569 -9999 319 448 376 658 663 271 275 258 207 208 870 181 181 947 793 258 870 817 872 871 925 924 -9999 -9999
VOLTAGES 1223577754 BIAS -9999 -9999 -9999 -61.69 -8.83 -6.09 -6.04 -9.84 -9.80 -7.52 -8.03 -8.03 -6.54 -8.28 -8.28 -5.80 -7.29 -7.52 -6.54 -18.24 -11.29 -11.29 -16.23 -16.23 -9999 -9999
VOLTAGES 1223578052 READ 100.83 -9999 -75.39 76.20 -2.66 2.85 2.97 -4.73 -4.63 -4.98 -5.96 -5.96 7.01 -6.46 -6.46 8.50 5.49 -4.98 6.99 11.91 14.06 14.02 24.20 24.14 -9999 -9999
VOLTAGES 1223578052 OUTOFSPEC 0 0 0 0 0 0 0 0 0 0 0 0 0 0 0 0 0 0 0 0 0 0 0 0 0 0
VOLTAGES 1223578052 READ_RAW 573 -9999 319 448 376 658 664 270 275 257 207 207 871 181 181 947 793 257 870 817 872 871 925 924 -9999 -9999
VOLTAGES 1223578753 READ 102.39 -9999 -75.39 76.20 -2.68 2.85 2.97 -4.71 -4.63 -4.98 -5.96 -5.96 7.01 -6.46 -6.46 8.50 5.49 -4.96 6.99 11.91 14.06 14.02 24.26 24.14 -9999 -9999
VOLTAGES 1223578753 OUTOFSPEC 0 0 0 0 0 0 0 0 0 0 0 0 0 0 0 0 0 0 0 0 0 0 0 0 0 0
VOLTAGES 1223578753 READ_RAW 577 -9999 319 448 375 658 664 271 275 257 207 207 871 181 181 947 793 258 870 817 872 871 926 924 -9999 -9999
VOLTAGES 1223579455 READ 103.17 -9999 -75.39 76.20 -2.66 2.85 2.97 -4.71 -4.63 -4.98 -5.96 -5.96 6.99 -6.46 -6.46 8.50 5.49 -4.96 7.01 11.91 14.10 14.02 24.20 24.14 -9999 -9999
VOLTAGES 1223579455 OUTOFSPEC 0 0 0 0 0 0 0 0 0 0 0 0 0 0 0 0 0 0 0 0 0 0 0 0 0 0
VOLTAGES 1223579455 READ_RAW 579 -9999 319 448 376 658 664 271 275 257 207 207 870 181 181 947 793 258 871 817 873 871 925 924 -9999 -9999
VOLTAGES 1223580155 READ 104.73 -9999 -75.39 76.20 -2.66 2.85 2.97 -4.71 -4.63 -4.98 -5.96 -5.96 7.01 -6.46 -6.46 8.50 5.49 -4.96 7.01 11.91 14.06 14.02 24.20 24.14 -9999 -9999
VOLTAGES 1223580155 OUTOFSPEC 0 0 0 0 0 0 0 0 0 0 0 0 0 0 0 0 0 0 0 0 0 0 0 0 0 0
VOLTAGES 1223580155 READ_RAW 583 -9999 319 448 376 658 664 271 275 257 207 207 871 181 181 947 793 258 871 817 872 871 925 924 -9999 -9999
VOLTAGES 1223580891 READ 100.05 -9999 -75.39 76.20 -2.66 2.85 2.97 -4.71 -4.63 -4.98 -5.96 -5.96 7.01 -6.46 -6.46 8.50 5.49 -4.98 7.01 11.91 14.10 14.02 24.26 24.14 -9999 -9999
VOLTAGES 1223580891 OUTOFSPEC 0 0 0 0 0 0 0 0 0 0 0 0 0 0 0 0 0 0 0 0 0 0 0 0 0 0
VOLTAGES 1223580891 READ_RAW 571 -9999 319 448 376 658 664 271 275 257 207 207 871 181 181 947 793 257 871 817 873 871 926 924 -9999 -9999
VOLTAGES 1223581625 READ 100.44 -9999 -75.39 76.20 -2.66 2.85 2.97 -4.73 -4.63 -4.96 -5.96 -5.96 7.01 -6.46 -6.46 8.50 5.49 -4.96 7.01 11.91 14.10 14.02 24.20 24.14 -9999 -9999
VOLTAGES 1223581625 OUTOFSPEC 0 0 0 0 0 0 0 0 0 0 0 0 0 0 0 0 0 0 0 0 0 0 0 0 0 0
VOLTAGES 1223581625 READ_RAW 572 -9999 319 448 376 658 664 270 275 258 207 207 871 181 181 947 793 258 871 817 873 871 925 924 -9999 -9999
VOLTAGES 1223582338 READ 102.00 -9999 -75.39 76.20 -2.68 2.85 2.97 -4.71 -4.63 -4.98 -5.96 -5.96 7.01 -6.46 -6.46 8.50 5.49 -4.98 6.99 11.95 14.06 14.02 24.26 24.14 -9999 -9999
VOLTAGES 1223582338 OUTOFSPEC 0 0 0 0 0 0 0 0 0 0 0 0 0 0 0 0 0 0 0 0 0 0 0 0 0 0
VOLTAGES 1223582338 READ_RAW 576 -9999 319 448 375 658 664 271 275 257 207 207 871 181 181 947 793 257 870 818 872 871 926 924 -9999 -9999
VOLTAGES 1223583092 READ 103.56 -9999 -75.00 76.20 -2.66 2.85 2.97 -4.71 -4.63 -4.96 -5.96 -5.96 7.01 -6.46 -6.46 8.50 5.49 -4.98 6.99 11.91 14.06 14.02 24.26 24.14 -9999 -9999
VOLTAGES 1223583092 OUTOFSPEC 0 0 0 0 0 0 0 0 0 0 0 0 0 0 0 0 0 0 0 0 0 0 0 0 0 0
VOLTAGES 1223583092 READ_RAW 580 -9999 320 448 376 658 664 271 275 258 207 207 871 181 181 947 793 257 870 817 872 871 926 924 -9999 -9999
VOLTAGES 1223591630 READ 105.91 -9999 -75.39 76.20 -2.66 2.85 2.97 -4.73 -4.63 -4.98 -5.96 -5.96 7.01 -6.46 -6.45 8.50 5.49 -4.96 6.99 11.91 14.06 14.02 24.26 24.14 -9999 -9999
VOLTAGES 1223591630 OUTOFSPEC 0 0 0 0 0 0 0 0 0 0 0 0 0 0 0 0 0 0 0 0 0 0 0 0 0 0
VOLTAGES 1223591630 READ_RAW 586 -9999 319 448 376 658 664 270 275 257 207 207 871 181 182 947 793 258 870 817 872 871 926 924 -9999 -9999
VOLTAGES 1223592351 READ 100.05 -9999 -75.00 76.59 -2.66 2.85 2.97 -4.71 -4.65 -4.96 -5.96 -5.96 6.99 -6.45 -6.46 8.50 5.49 -4.96 7.01 11.91 14.10 14.02 24.20 24.14 -9999 -9999
VOLTAGES 1223592351 OUTOFSPEC 0 0 0 0 0 0 0 0 0 0 0 0 0 0 0 0 0 0 0 0 0 0 0 0 0 0
VOLTAGES 1223592351 READ_RAW 571 -9999 320 449 376 658 664 271 274 258 207 207 870 182 181 947 793 258 871 817 873 871 925 924 -9999 -9999
VOLTAGES 1223593056 READ 102.00 -9999 -75.39 76.20 -2.66 2.85 2.97 -4.71 -4.65 -4.96 -5.94 -5.96 7.01 -6.46 -6.46 8.50 5.51 -4.96 6.99 11.91 14.06 14.02 24.26 24.14 -9999 -9999
VOLTAGES 1223593056 OUTOFSPEC 0 0 0 0 0 0 0 0 0 0 0 0 0 0 0 0 0 0 0 0 0 0 0 0 0 0
VOLTAGES 1223593056 READ_RAW 576 -9999 319 448 376 658 664 271 274 258 208 207 871 181 181 947 794 258 870 817 872 871 926 924 -9999 -9999
VOLTAGES 1223593756 READ 102.78 -9999 -75.39 76.20 -2.66 2.85 2.97 -4.71 -4.63 -4.98 -5.96 -5.96 7.01 -6.46 -6.46 8.50 5.49 -4.98 7.01 11.91 14.06 14.02 24.26 24.14 -9999 -9999
VOLTAGES 1223593756 OUTOFSPEC 0 0 0 0 0 0 0 0 0 0 0 0 0 0 0 0 0 0 0 0 0 0 0 0 0 0
VOLTAGES 1223593756 READ_RAW 578 -9999 319 448 376 658 664 271 275 257 207 207 871 181 181 947 793 257 871 817 872 871 926 924 -9999 -9999
VOLTAGES 1223594457 READ 104.34 -9999 -75.39 76.20 -2.66 2.85 2.97 -4.71 -4.63 -4.98 -5.96 -5.96 7.01 -6.46 -6.46 8.50 5.49 -4.96 7.01 11.91 14.06 14.02 24.20 24.14 -9999 -9999
VOLTAGES 1223594457 OUTOFSPEC 0 0 0 0 0 0 0 0 0 0 0 0 0 0 0 0 0 0 0 0 0 0 0 0 0 0
VOLTAGES 1223594457 READ_RAW 582 -9999 319 448 376 658 664 271 275 257 207 207 871 181 181 947 793 258 871 817 872 871 925 924 -9999 -9999
VOLTAGES 1223594893 NOM 105.12 -9999 -74.61 75.42 -2.70 2.83 2.95 -4.73 -4.65 -5.00 -6.02 -6.02 6.95 -6.48 -6.48 8.48 5.47 -5.00 6.95 11.91 13.98 13.98 23.96 23.96 -9999 -9999
VOLTAGES 1223594893 NOM_RAW 584 -9999 321 446 374 657 663 270 274 256 204 204 868 180 180 946 792 256 868 817 870 870 921 921 -9999 -9999
VOLTAGES 1223594893 TOL 19.531 4.883 20.312 2.734 0.098 0.195 0.098 0.098 0.098 0.195 0.195 0.195 0.098 0.195 0.195 0.098 0.098 0.195 0.098 0.273 0.195 0.195 0.879 0.879 0.293 0.098
VOLTAGES 1223594893 TOL_RAW 50 250 52 7 5 10 5 5 5 10 10 10 5 10 10 5 5 10 5 7 5 5 15 15 15 5
VOLTAGES 1223595192 READ 102.00 -9999 -75.39 76.20 -2.66 2.85 2.97 -4.71 -4.63 -4.96 -5.96 -5.96 7.01 -6.46 -6.46 8.50 5.51 -4.96 7.01 11.91 14.06 14.02 24.26 24.14 -9999 -9999
VOLTAGES 1223595192 OUTOFSPEC 0 0 0 0 0 0 0 0 0 0 0 0 0 0 0 0 0 0 0 0 0 0 0 0 0 0
VOLTAGES 1223595192 READ_RAW 576 -9999 319 448 376 658 664 271 275 258 207 207 871 181 181 947 794 258 871 817 872 871 926 924 -9999 -9999
VOLTAGES 1223595892 READ 99.66 -9999 -75.39 76.59 -2.66 2.85 2.97 -4.71 -4.63 -4.96 -5.96 -5.94 7.01 -6.46 -6.46 8.50 5.49 -4.96 7.01 11.91 14.10 14.02 24.26 24.14 -9999 -9999
VOLTAGES 1223595892 OUTOFSPEC 0 0 0 0 0 0 0 0 0 0 0 0 0 0 0 0 0 0 0 0 0 0 0 0 0 0
VOLTAGES 1223595892 READ_RAW 570 -9999 319 449 376 658 664 271 275 258 207 208 871 181 181 947 793 258 871 817 873 871 926 924 -9999 -9999
VOLTAGES 1223596324 BIAS -9999 -9999 -9999 -61.69 -8.83 -6.09 -6.04 -9.84 -9.80 -7.52 -8.03 -8.03 -6.54 -8.28 -8.28 -5.80 -7.29 -7.52 -6.54 -18.24 -11.29 -11.29 -16.23 -16.23 -9999 -9999
VOLTAGES 1223596635 READ 101.22 -9999 -75.39 76.59 -2.66 2.85 2.97 -4.71 -4.65 -4.96 -5.96 -5.96 7.01 -6.46 -6.46 8.50 5.49 -4.96 7.01 11.91 14.10 14.02 24.26 24.14 -9999 -9999
VOLTAGES 1223596635 OUTOFSPEC 0 0 0 0 0 0 0 0 0 0 0 0 0 0 0 0 0 0 0 0 0 0 0 0 0 0
VOLTAGES 1223596635 READ_RAW 574 -9999 319 449 376 658 664 271 274 258 207 207 871 181 181 947 793 258 871 817 873 871 926 924 -9999 -9999
VOLTAGES 1223597339 READ 102.78 -9999 -75.39 76.20 -2.66 2.85 2.97 -4.71 -4.65 -4.96 -5.96 -5.96 7.01 -6.46 -6.46 8.50 5.49 -4.96 7.01 11.91 14.06 14.02 24.20 24.14 -9999 -9999
VOLTAGES 1223597339 OUTOFSPEC 0 0 0 0 0 0 0 0 0 0 0 0 0 0 0 0 0 0 0 0 0 0 0 0 0 0
VOLTAGES 1223597339 READ_RAW 578 -9999 319 448 376 658 664 271 274 258 207 207 871 181 181 947 793 258 871 817 872 871 925 924 -9999 -9999
VOLTAGES 1223598040 READ 103.95 -9999 -75.39 76.59 -2.66 2.85 2.97 -4.71 -4.63 -4.96 -5.96 -5.96 7.01 -6.46 -6.46 8.50 5.51 -4.96 7.01 11.91 14.06 14.02 24.20 24.14 -9999 -9999
VOLTAGES 1223598040 OUTOFSPEC 0 0 0 0 0 0 0 0 0 0 0 0 0 0 0 0 0 0 0 0 0 0 0 0 0 0
VOLTAGES 1223598040 READ_RAW 581 -9999 319 449 376 658 664 271 275 258 207 207 871 181 181 947 794 258 871 817 872 871 925 924 -9999 -9999
VOLTAGES 1223598742 READ 105.12 -9999 -75.39 76.59 -2.66 2.85 2.97 -4.73 -4.65 -4.96 -5.96 -5.96 7.01 -6.46 -6.46 8.52 5.49 -4.96 7.01 11.91 14.06 14.02 24.20 24.14 -9999 -9999
VOLTAGES 1223598742 OUTOFSPEC 0 0 0 0 0 0 0 0 0 0 0 0 0 0 0 0 0 0 0 0 0 0 0 0 0 0
VOLTAGES 1223598742 READ_RAW 584 -9999 319 449 376 658 664 270 274 258 207 207 871 181 181 948 793 258 871 817 872 871 925 924 -9999 -9999
VOLTAGES 1223599463 READ 98.88 -9999 -75.39 76.20 -2.66 2.85 2.97 -4.73 -4.65 -4.98 -5.96 -5.96 6.99 -6.46 -6.46 8.50 5.49 -4.98 6.99 11.91 14.06 14.02 24.20 24.14 -9999 -9999
VOLTAGES 1223599463 OUTOFSPEC 0 0 0 0 0 0 0 0 0 0 0 0 0 0 0 0 0 0 0 0 0 0 0 0 0 0
VOLTAGES 1223599463 READ_RAW 568 -9999 319 448 376 658 664 270 274 257 207 207 870 181 181 947 793 257 870 817 872 871 925 924 -9999 -9999
VOLTAGES 1223600193 READ 100.83 -9999 -75.39 76.20 -2.66 2.85 2.97 -4.73 -4.63 -4.98 -5.96 -5.96 7.01 -6.46 -6.46 8.50 5.49 -4.96 6.99 11.91 14.06 14.02 24.20 24.14 -9999 -9999
VOLTAGES 1223600193 OUTOFSPEC 0 0 0 0 0 0 0 0 0 0 0 0 0 0 0 0 0 0 0 0 0 0 0 0 0 0
VOLTAGES 1223600193 READ_RAW 573 -9999 319 448 376 658 664 270 275 257 207 207 871 181 181 947 793 258 870 817 872 871 925 924 -9999 -9999
VOLTAGES 1223600895 READ 102.78 -9999 -75.39 76.20 -2.66 2.85 2.97 -4.71 -4.63 -4.96 -5.96 -5.96 7.01 -6.46 -6.46 8.50 5.49 -4.98 6.99 11.91 14.06 14.02 24.20 24.14 -9999 -9999
VOLTAGES 1223600895 OUTOFSPEC 0 0 0 0 0 0 0 0 0 0 0 0 0 0 0 0 0 0 0 0 0 0 0 0 0 0
VOLTAGES 1223600895 READ_RAW 578 -9999 319 448 376 658 664 271 275 258 207 207 871 181 181 947 793 257 870 817 872 871 925 924 -9999 -9999
VOLTAGES 1223601597 READ 103.56 -9999 -75.39 76.59 -2.66 2.85 2.97 -4.71 -4.63 -4.98 -5.96 -5.96 7.01 -6.46 -6.46 8.50 5.49 -4.98 6.99 11.91 14.06 14.02 24.20 24.14 -9999 -9999
VOLTAGES 1223601597 OUTOFSPEC 0 0 0 0 0 0 0 0 0 0 0 0 0 0 0 0 0 0 0 0 0 0 0 0 0 0
VOLTAGES 1223601597 READ_RAW 580 -9999 319 449 376 658 664 271 275 257 207 207 871 181 181 947 793 257 870 817 872 871 925 924 -9999 -9999
VOLTAGES 1223602311 READ 104.73 -9999 -75.39 76.20 -2.66 2.85 2.97 -4.71 -4.63 -4.98 -5.96 -5.96 7.01 -6.46 -6.46 8.50 5.49 -4.96 6.99 11.91 14.06 14.02 24.20 24.14 -9999 -9999
VOLTAGES 1223602311 OUTOFSPEC 0 0 0 0 0 0 0 0 0 0 0 0 0 0 0 0 0 0 0 0 0 0 0 0 0 0
VOLTAGES 1223602311 READ_RAW 583 -9999 319 448 376 658 664 271 275 257 207 207 871 181 181 947 793 258 870 817 872 871 925 924 -9999 -9999
VOLTAGES 1223603017 READ 99.27 -9999 -75.39 76.20 -2.66 2.85 2.97 -4.71 -4.63 -4.96 -5.94 -5.96 7.01 -6.46 -6.46 8.50 5.49 -4.98 6.99 11.91 14.06 14.02 24.20 24.14 -9999 -9999
VOLTAGES 1223603017 OUTOFSPEC 0 0 0 0 0 0 0 0 0 0 0 0 0 0 0 0 0 0 0 0 0 0 0 0 0 0
VOLTAGES 1223603017 READ_RAW 569 -9999 319 448 376 658 664 271 275 258 208 207 871 181 181 947 793 257 870 817 872 871 925 924 -9999 -9999
VOLTAGES 1223603475 NOM 105.12 -9999 -74.61 75.42 -2.70 2.83 2.95 -4.73 -4.65 -5.00 -6.02 -6.02 6.95 -6.48 -6.48 8.48 5.47 -5.00 6.95 11.91 13.98 13.98 23.96 23.96 -9999 -9999
VOLTAGES 1223603475 NOM_RAW 584 -9999 321 446 374 657 663 270 274 256 204 204 868 180 180 946 792 256 868 817 870 870 921 921 -9999 -9999
VOLTAGES 1223603475 TOL 19.531 4.883 20.312 2.734 0.098 0.195 0.098 0.098 0.098 0.195 0.195 0.195 0.098 0.195 0.195 0.098 0.098 0.195 0.098 0.273 0.195 0.195 0.879 0.879 0.293 0.098
VOLTAGES 1223603475 TOL_RAW 50 250 52 7 5 10 5 5 5 10 10 10 5 10 10 5 5 10 5 7 5 5 15 15 15 5
VOLTAGES 1223603779 READ 100.44 -9999 -75.39 76.20 -2.66 2.85 2.97 -4.71 -4.63 -4.96 -5.96 -5.96 6.99 -6.45 -6.46 8.50 5.49 -4.96 6.99 11.91 14.06 14.02 24.20 24.14 -9999 -9999
VOLTAGES 1223603779 OUTOFSPEC 0 0 0 0 0 0 0 0 0 0 0 0 0 0 0 0 0 0 0 0 0 0 0 0 0 0
VOLTAGES 1223603779 READ_RAW 572 -9999 319 448 376 658 664 271 275 258 207 207 870 182 181 947 793 258 870 817 872 871 925 924 -9999 -9999
VOLTAGES 1223604584 READ 102.39 -9999 -75.39 76.20 -2.66 2.85 2.97 -4.71 -4.63 -4.98 -5.96 -5.96 7.01 -6.46 -6.46 8.50 5.51 -4.96 6.99 11.91 14.06 14.02 24.20 24.14 -9999 -9999
VOLTAGES 1223604584 OUTOFSPEC 0 0 0 0 0 0 0 0 0 0 0 0 0 0 0 0 0 0 0 0 0 0 0 0 0 0
VOLTAGES 1223604584 READ_RAW 577 -9999 319 448 376 658 664 271 275 257 207 207 871 181 181 947 794 258 870 817 872 871 925 924 -9999 -9999
VOLTAGES 1223605058 BIAS -9999 -9999 -9999 -61.69 -8.83 -6.09 -6.04 -9.84 -9.80 -7.52 -8.03 -8.03 -6.54 -8.28 -8.28 -5.80 -7.29 -7.52 -6.54 -18.24 -11.29 -11.29 -16.23 -16.23 -9999 -9999
VOLTAGES 1223605358 READ 103.95 -9999 -75.39 76.20 -2.68 2.85 2.97 -4.73 -4.63 -4.98 -5.96 -5.96 7.01 -6.46 -6.46 8.50 5.49 -4.96 6.99 11.91 14.06 14.02 24.26 24.14 -9999 -9999
VOLTAGES 1223605358 OUTOFSPEC 0 0 0 0 0 0 0 0 0 0 0 0 0 0 0 0 0 0 0 0 0 0 0 0 0 0
VOLTAGES 1223605358 READ_RAW 581 -9999 319 448 375 658 664 270 275 257 207 207 871 181 181 947 793 258 870 817 872 871 926 924 -9999 -9999
VOLTAGES 1223606059 READ 105.52 -9999 -75.39 76.20 -2.66 2.85 2.97 -4.71 -4.63 -4.98 -5.96 -5.96 6.99 -6.46 -6.46 8.50 5.49 -4.98 7.01 11.91 14.06 13.98 24.20 24.14 -9999 -9999
VOLTAGES 1223606059 OUTOFSPEC 0 0 0 0 0 0 0 0 0 0 0 0 0 0 0 0 0 0 0 0 0 0 0 0 0 0
VOLTAGES 1223606059 READ_RAW 585 -9999 319 448 376 658 664 271 275 257 207 207 870 181 181 947 793 257 871 817 872 870 925 924 -9999 -9999
VOLTAGES 1223606760 READ 99.66 -9999 -75.39 76.20 -2.66 2.85 2.97 -4.71 -4.63 -4.98 -5.96 -5.96 7.01 -6.46 -6.45 8.50 5.49 -4.98 6.99 11.91 14.06 14.02 24.26 24.14 -9999 -9999
VOLTAGES 1223606760 OUTOFSPEC 0 0 0 0 0 0 0 0 0 0 0 0 0 0 0 0 0 0 0 0 0 0 0 0 0 0
VOLTAGES 1223606760 READ_RAW 570 -9999 319 448 376 658 664 271 275 257 207 207 871 181 182 947 793 257 870 817 872 871 926 924 -9999 -9999
VOLTAGES 1223607462 READ 100.83 -9999 -75.39 76.20 -2.66 2.85 2.97 -4.71 -4.63 -4.98 -5.96 -5.96 7.01 -6.46 -6.45 8.50 5.49 -4.96 6.99 11.91 14.10 14.02 24.20 24.14 -9999 -9999
VOLTAGES 1223607462 OUTOFSPEC 0 0 0 0 0 0 0 0 0 0 0 0 0 0 0 0 0 0 0 0 0 0 0 0 0 0
VOLTAGES 1223607462 READ_RAW 573 -9999 319 448 376 658 664 271 275 257 207 207 871 181 182 947 793 258 870 817 873 871 925 924 -9999 -9999
VOLTAGES 1223608163 READ 102.78 -9999 -75.39 76.20 -2.66 2.85 2.97 -4.71 -4.63 -4.98 -5.96 -5.96 6.99 -6.46 -6.45 8.50 5.49 -4.98 6.99 11.91 14.06 14.02 24.26 24.14 -9999 -9999
VOLTAGES 1223608163 OUTOFSPEC 0 0 0 0 0 0 0 0 0 0 0 0 0 0 0 0 0 0 0 0 0 0 0 0 0 0
VOLTAGES 1223608163 READ_RAW 578 -9999 319 448 376 658 664 271 275 257 207 207 870 181 182 947 793 257 870 817 872 871 926 924 -9999 -9999
VOLTAGES 1223608865 READ 103.56 -9999 -75.39 76.59 -2.66 2.85 2.97 -4.71 -4.65 -4.98 -5.96 -5.96 6.99 -6.46 -6.46 8.50 5.49 -4.96 6.99 11.91 14.06 14.02 24.26 24.14 -9999 -9999
VOLTAGES 1223608865 OUTOFSPEC 0 0 0 0 0 0 0 0 0 0 0 0 0 0 0 0 0 0 0 0 0 0 0 0 0 0
VOLTAGES 1223608865 READ_RAW 580 -9999 319 449 376 658 664 271 274 257 207 207 870 181 181 947 793 258 870 817 872 871 926 924 -9999 -9999
VOLTAGES 1223609566 READ 105.12 -9999 -75.39 76.20 -2.68 2.85 2.97 -4.71 -4.63 -4.98 -5.96 -5.96 7.01 -6.46 -6.46 8.50 5.49 -4.98 6.99 11.91 14.06 14.02 24.26 24.14 -9999 -9999
VOLTAGES 1223609566 OUTOFSPEC 0 0 0 0 0 0 0 0 0 0 0 0 0 0 0 0 0 0 0 0 0 0 0 0 0 0
VOLTAGES 1223609566 READ_RAW 584 -9999 319 448 375 658 664 271 275 257 207 207 871 181 181 947 793 257 870 817 872 871 926 924 -9999 -9999
VOLTAGES 1223610265 READ 99.66 -9999 -75.39 76.20 -2.66 2.85 2.97 -4.73 -4.63 -4.98 -5.96 -5.96 7.01 -6.46 -6.46 8.50 5.49 -4.98 6.99 11.91 14.06 14.02 24.20 24.14 -9999 -9999
VOLTAGES 1223610265 OUTOFSPEC 0 0 0 0 0 0 0 0 0 0 0 0 0 0 0 0 0 0 0 0 0 0 0 0 0 0
VOLTAGES 1223610265 READ_RAW 570 -9999 319 448 376 658 664 270 275 257 207 207 871 181 181 947 793 257 870 817 872 871 925 924 -9999 -9999
VOLTAGES 1223610966 READ 100.05 -9999 -75.39 76.20 -2.66 2.85 2.97 -4.71 -4.63 -4.98 -5.94 -5.96 7.01 -6.46 -6.45 8.50 5.49 -4.98 7.01 11.91 14.06 14.02 24.20 24.14 -9999 -9999
VOLTAGES 1223610966 OUTOFSPEC 0 0 0 0 0 0 0 0 0 0 0 0 0 0 0 0 0 0 0 0 0 0 0 0 0 0
VOLTAGES 1223610966 READ_RAW 571 -9999 319 448 376 658 664 271 275 257 208 207 871 181 182 947 793 257 871 817 872 871 925 924 -9999 -9999
VOLTAGES 1223611667 READ 102.39 -9999 -75.39 76.20 -2.66 2.85 2.97 -4.71 -4.63 -4.96 -5.96 -5.96 7.01 -6.46 -6.46 8.50 5.51 -4.96 7.01 11.91 14.06 14.02 24.20 24.14 -9999 -9999
VOLTAGES 1223611667 OUTOFSPEC 0 0 0 0 0 0 0 0 0 0 0 0 0 0 0 0 0 0 0 0 0 0 0 0 0 0
VOLTAGES 1223611667 READ_RAW 577 -9999 319 448 376 658 664 271 275 258 207 207 871 181 181 947 794 258 871 817 872 871 925 924 -9999 -9999
VOLTAGES 1223612104 NOM 105.12 -9999 -74.61 75.42 -2.70 2.83 2.95 -4.73 -4.65 -5.00 -6.02 -6.02 6.95 -6.48 -6.48 8.48 5.47 -5.00 6.95 11.91 13.98 13.98 23.96 23.96 -9999 -9999
VOLTAGES 1223612104 NOM_RAW 584 -9999 321 446 374 657 663 270 274 256 204 204 868 180 180 946 792 256 868 817 870 870 921 921 -9999 -9999
VOLTAGES 1223612104 TOL 19.531 4.883 20.312 2.734 0.098 0.195 0.098 0.098 0.098 0.195 0.195 0.195 0.098 0.195 0.195 0.098 0.098 0.195 0.098 0.273 0.195 0.195 0.879 0.879 0.293 0.098
VOLTAGES 1223612104 TOL_RAW 50 250 52 7 5 10 5 5 5 10 10 10 5 10 10 5 5 10 5 7 5 5 15 15 15 5
VOLTAGES 1223612402 READ 103.56 -9999 -75.39 76.59 -2.66 2.85 2.97 -4.71 -4.63 -4.96 -5.96 -5.96 7.01 -6.46 -6.46 8.50 5.49 -4.98 6.99 11.91 14.10 14.02 24.20 24.14 -9999 -9999
VOLTAGES 1223612402 OUTOFSPEC 0 0 0 0 0 0 0 0 0 0 0 0 0 0 0 0 0 0 0 0 0 0 0 0 0 0
VOLTAGES 1223612402 READ_RAW 580 -9999 319 449 376 658 664 271 275 258 207 207 871 181 181 947 793 257 870 817 873 871 925 924 -9999 -9999
VOLTAGES 1223613102 READ 105.12 -9999 -75.39 76.20 -2.66 2.85 2.97 -4.73 -4.63 -4.98 -5.96 -5.96 7.01 -6.46 -6.46 8.50 5.49 -4.98 6.99 11.91 14.06 14.02 24.20 24.14 -9999 -9999
VOLTAGES 1223613102 OUTOFSPEC 0 0 0 0 0 0 0 0 0 0 0 0 0 0 0 0 0 0 0 0 0 0 0 0 0 0
VOLTAGES 1223613102 READ_RAW 584 -9999 319 448 376 658 664 270 275 257 207 207 871 181 181 947 793 257 870 817 872 871 925 924 -9999 -9999
VOLTAGES 1223613534 BIAS -9999 -9999 -9999 -61.69 -8.83 -6.09 -6.04 -9.84 -9.80 -7.52 -8.03 -8.03 -6.54 -8.28 -8.28 -5.80 -7.29 -7.52 -6.54 -18.24 -11.29 -11.29 -16.23 -16.23 -9999 -9999
VOLTAGES 1223613833 READ 99.27 -9999 -75.39 76.20 -2.66 2.85 2.97 -4.71 -4.63 -4.96 -5.96 -5.94 7.01 -6.46 -6.46 8.50 5.49 -4.96 7.01 11.91 14.06 14.02 24.20 24.14 -9999 -9999
VOLTAGES 1223613833 OUTOFSPEC 0 0 0 0 0 0 0 0 0 0 0 0 0 0 0 0 0 0 0 0 0 0 0 0 0 0
VOLTAGES 1223613833 READ_RAW 569 -9999 319 448 376 658 664 271 275 258 207 208 871 181 181 947 793 258 871 817 872 871 925 924 -9999 -9999
VOLTAGES 1223614533 READ 100.44 -9999 -75.39 76.59 -2.68 2.85 2.97 -4.73 -4.65 -4.98 -5.96 -5.96 6.99 -6.46 -6.46 8.50 5.49 -4.98 7.01 11.91 14.06 14.02 24.20 24.14 -9999 -9999
VOLTAGES 1223614533 OUTOFSPEC 0 0 0 0 0 0 0 0 0 0 0 0 0 0 0 0 0 0 0 0 0 0 0 0 0 0
VOLTAGES 1223614533 READ_RAW 572 -9999 319 449 375 658 664 270 274 257 207 207 870 181 181 947 793 257 871 817 872 871 925 924 -9999 -9999
VOLTAGES 1223615233 READ 102.00 -9999 -75.39 76.20 -2.66 2.85 2.97 -4.73 -4.65 -4.98 -5.96 -5.96 7.01 -6.46 -6.46 8.50 5.49 -4.96 6.99 11.91 14.06 14.02 24.20 24.14 -9999 -9999
VOLTAGES 1223615233 OUTOFSPEC 0 0 0 0 0 0 0 0 0 0 0 0 0 0 0 0 0 0 0 0 0 0 0 0 0 0
VOLTAGES 1223615233 READ_RAW 576 -9999 319 448 376 658 664 270 274 257 207 207 871 181 181 947 793 258 870 817 872 871 925 924 -9999 -9999
VOLTAGES 1223615934 READ 103.56 -9999 -75.39 76.20 -2.66 2.85 2.97 -4.73 -4.63 -4.96 -5.96 -5.96 7.01 -6.46 -6.46 8.50 5.49 -4.96 7.01 11.91 14.06 14.02 24.26 24.14 -9999 -9999
VOLTAGES 1223615934 OUTOFSPEC 0 0 0 0 0 0 0 0 0 0 0 0 0 0 0 0 0 0 0 0 0 0 0 0 0 0
VOLTAGES 1223615934 READ_RAW 580 -9999 319 448 376 658 664 270 275 258 207 207 871 181 181 947 793 258 871 817 872 871 926 924 -9999 -9999
VOLTAGES 1223616635 READ 104.73 -9999 -75.39 76.59 -2.66 2.85 2.97 -4.71 -4.63 -4.96 -5.96 -5.96 7.01 -6.46 -6.46 8.50 5.49 -4.98 6.99 11.91 14.10 14.02 24.26 24.14 -9999 -9999
VOLTAGES 1223616635 OUTOFSPEC 0 0 0 0 0 0 0 0 0 0 0 0 0 0 0 0 0 0 0 0 0 0 0 0 0 0
VOLTAGES 1223616635 READ_RAW 583 -9999 319 449 376 658 664 271 275 258 207 207 871 181 181 947 793 257 870 817 873 871 926 924 -9999 -9999
VOLTAGES 1223617338 READ 98.88 -9999 -75.39 76.20 -2.66 2.85 2.97 -4.71 -4.63 -4.98 -5.96 -5.96 6.99 -6.46 -6.46 8.50 5.51 -4.98 6.99 11.91 14.10 14.02 24.20 24.14 -9999 -9999
VOLTAGES 1223617338 OUTOFSPEC 0 0 0 0 0 0 0 0 0 0 0 0 0 0 0 0 0 0 0 0 0 0 0 0 0 0
VOLTAGES 1223617338 READ_RAW 568 -9999 319 448 376 658 664 271 275 257 207 207 870 181 181 947 794 257 870 817 873 871 925 924 -9999 -9999
VOLTAGES 1223618039 READ 100.05 -9999 -75.39 76.20 -2.66 2.85 2.97 -4.71 -4.65 -4.96 -5.96 -5.96 7.01 -6.46 -6.46 8.50 5.49 -4.96 6.99 11.91 14.06 14.02 24.20 24.14 -9999 -9999
VOLTAGES 1223618039 OUTOFSPEC 0 0 0 0 0 0 0 0 0 0 0 0 0 0 0 0 0 0 0 0 0 0 0 0 0 0
VOLTAGES 1223618039 READ_RAW 571 -9999 319 448 376 658 664 271 274 258 207 207 871 181 181 947 793 258 870 817 872 871 925 924 -9999 -9999
VOLTAGES 1223618740 READ 102.00 -9999 -75.39 76.20 -2.66 2.85 2.97 -4.71 -4.63 -4.96 -5.96 -5.96 7.01 -6.46 -6.46 8.50 5.49 -4.98 6.99 11.91 14.06 14.02 24.26 24.14 -9999 -9999
VOLTAGES 1223618740 OUTOFSPEC 0 0 0 0 0 0 0 0 0 0 0 0 0 0 0 0 0 0 0 0 0 0 0 0 0 0
VOLTAGES 1223618740 READ_RAW 576 -9999 319 448 376 658 664 271 275 258 207 207 871 181 181 947 793 257 870 817 872 871 926 924 -9999 -9999
VOLTAGES 1223619441 READ 103.56 -9999 -75.39 76.20 -2.66 2.85 2.97 -4.71 -4.65 -4.96 -5.96 -5.96 7.01 -6.46 -6.46 8.50 5.49 -4.98 6.99 11.91 14.10 14.02 24.20 24.14 -9999 -9999
VOLTAGES 1223619441 OUTOFSPEC 0 0 0 0 0 0 0 0 0 0 0 0 0 0 0 0 0 0 0 0 0 0 0 0 0 0
VOLTAGES 1223619441 READ_RAW 580 -9999 319 448 376 658 664 271 274 258 207 207 871 181 181 947 793 257 870 817 873 871 925 924 -9999 -9999
VOLTAGES 1223620141 READ 104.34 -9999 -75.00 76.20 -2.66 2.85 2.97 -4.73 -4.63 -4.98 -5.96 -5.96 7.01 -6.46 -6.46 8.50 5.49 -4.98 6.99 11.91 14.06 14.02 24.26 24.14 -9999 -9999
VOLTAGES 1223620141 OUTOFSPEC 0 0 0 0 0 0 0 0 0 0 0 0 0 0 0 0 0 0 0 0 0 0 0 0 0 0
VOLTAGES 1223620141 READ_RAW 582 -9999 320 448 376 658 664 270 275 257 207 207 871 181 181 947 793 257 870 817 872 871 926 924 -9999 -9999
VOLTAGES 1223620577 NOM 105.12 -9999 -74.61 75.42 -2.70 2.83 2.95 -4.73 -4.65 -5.00 -6.02 -6.02 6.95 -6.48 -6.48 8.48 5.47 -5.00 6.95 11.91 13.98 13.98 23.96 23.96 -9999 -9999
VOLTAGES 1223620577 NOM_RAW 584 -9999 321 446 374 657 663 270 274 256 204 204 868 180 180 946 792 256 868 817 870 870 921 921 -9999 -9999
VOLTAGES 1223620577 TOL 19.531 4.883 20.312 2.734 0.098 0.195 0.098 0.098 0.098 0.195 0.195 0.195 0.098 0.195 0.195 0.098 0.098 0.195 0.098 0.273 0.195 0.195 0.879 0.879 0.293 0.098
VOLTAGES 1223620577 TOL_RAW 50 250 52 7 5 10 5 5 5 10 10 10 5 10 10 5 5 10 5 7 5 5 15 15 15 5
VOLTAGES 1223620876 READ 98.09 -9999 -75.39 76.20 -2.66 2.85 2.97 -4.71 -4.65 -4.98 -5.96 -5.96 7.01 -6.45 -6.46 8.50 5.49 -4.98 7.01 11.91 14.06 14.02 24.20 24.14 -9999 -9999
VOLTAGES 1223620876 OUTOFSPEC 0 0 0 0 0 0 0 0 0 0 0 0 0 0 0 0 0 0 0 0 0 0 0 0 0 0
VOLTAGES 1223620876 READ_RAW 566 -9999 319 448 376 658 664 271 274 257 207 207 871 182 181 947 793 257 871 817 872 871 925 924 -9999 -9999
VOLTAGES 1223621576 READ 99.66 -9999 -75.39 76.20 -2.66 2.85 2.97 -4.71 -4.63 -4.98 -5.96 -5.96 7.01 -6.46 -6.46 8.50 5.49 -4.98 6.99 11.91 14.06 14.02 24.20 24.14 -9999 -9999
VOLTAGES 1223621576 OUTOFSPEC 0 0 0 0 0 0 0 0 0 0 0 0 0 0 0 0 0 0 0 0 0 0 0 0 0 0
VOLTAGES 1223621576 READ_RAW 570 -9999 319 448 376 658 664 271 275 257 207 207 871 181 181 947 793 257 870 817 872 871 925 924 -9999 -9999
VOLTAGES 1223622008 BIAS -9999 -9999 -9999 -61.69 -8.83 -6.09 -6.04 -9.84 -9.80 -7.52 -8.03 -8.03 -6.54 -8.28 -8.28 -5.80 -7.29 -7.52 -6.54 -18.24 -11.29 -11.29 -16.23 -16.23 -9999 -9999
VOLTAGES 1223622306 READ 101.61 -9999 -75.39 76.20 -2.66 2.85 2.97 -4.73 -4.63 -4.96 -5.96 -5.96 7.01 -6.46 -6.46 8.50 5.49 -4.96 6.99 11.91 14.06 14.02 24.20 24.14 -9999 -9999
VOLTAGES 1223622306 OUTOFSPEC 0 0 0 0 0 0 0 0 0 0 0 0 0 0 0 0 0 0 0 0 0 0 0 0 0 0
VOLTAGES 1223622306 READ_RAW 575 -9999 319 448 376 658 664 270 275 258 207 207 871 181 181 947 793 258 870 817 872 871 925 924 -9999 -9999
VOLTAGES 1223623007 READ 103.17 -9999 -75.39 76.20 -2.66 2.85 2.97 -4.71 -4.63 -4.96 -5.96 -5.96 6.99 -6.46 -6.46 8.50 5.49 -4.98 6.99 11.95 14.06 14.02 24.26 24.14 -9999 -9999
VOLTAGES 1223623007 OUTOFSPEC 0 0 0 0 0 0 0 0 0 0 0 0 0 0 0 0 0 0 0 0 0 0 0 0 0 0
VOLTAGES 1223623007 READ_RAW 579 -9999 319 448 376 658 664 271 275 258 207 207 870 181 181 947 793 257 870 818 872 871 926 924 -9999 -9999
VOLTAGES 1223623708 READ 104.34 -9999 -75.39 76.20 -2.66 2.85 2.97 -4.71 -4.63 -4.98 -5.96 -5.96 7.01 -6.46 -6.46 8.52 5.49 -4.98 7.01 11.91 14.06 14.02 24.20 24.14 -9999 -9999
VOLTAGES 1223623708 OUTOFSPEC 0 0 0 0 0 0 0 0 0 0 0 0 0 0 0 0 0 0 0 0 0 0 0 0 0 0
VOLTAGES 1223623708 READ_RAW 582 -9999 319 448 376 658 664 271 275 257 207 207 871 181 181 948 793 257 871 817 872 871 925 924 -9999 -9999
VOLTAGES 1223624409 READ 105.52 -9999 -75.39 76.20 -2.66 2.85 2.97 -4.71 -4.63 -4.96 -5.96 -5.96 7.01 -6.46 -6.46 8.50 5.49 -4.98 7.01 11.91 14.10 14.02 24.20 24.14 -9999 -9999
VOLTAGES 1223624409 OUTOFSPEC 0 0 0 0 0 0 0 0 0 0 0 0 0 0 0 0 0 0 0 0 0 0 0 0 0 0
VOLTAGES 1223624409 READ_RAW 585 -9999 319 448 376 658 664 271 275 258 207 207 871 181 181 947 793 257 871 817 873 871 925 924 -9999 -9999
VOLTAGES 1223625110 READ 100.05 -9999 -75.39 76.20 -2.66 2.85 2.97 -4.71 -4.65 -4.98 -5.96 -5.96 7.01 -6.46 -6.45 8.50 5.51 -4.98 7.01 11.91 14.10 14.02 24.20 24.14 -9999 -9999
VOLTAGES 1223625110 OUTOFSPEC 0 0 0 0 0 0 0 0 0 0 0 0 0 0 0 0 0 0 0 0 0 0 0 0 0 0
VOLTAGES 1223625110 READ_RAW 571 -9999 319 448 376 658 664 271 274 257 207 207 871 181 182 947 794 257 871 817 873 871 925 924 -9999 -9999
VOLTAGES 1223625811 READ 101.22 -9999 -75.39 76.20 -2.66 2.85 2.97 -4.71 -4.63 -4.98 -5.96 -5.96 7.01 -6.46 -6.46 8.50 5.49 -4.98 6.99 11.91 14.06 14.02 24.20 24.14 -9999 -9999
VOLTAGES 1223625811 OUTOFSPEC 0 0 0 0 0 0 0 0 0 0 0 0 0 0 0 0 0 0 0 0 0 0 0 0 0 0
VOLTAGES 1223625811 READ_RAW 574 -9999 319 448 376 658 664 271 275 257 207 207 871 181 181 947 793 257 870 817 872 871 925 924 -9999 -9999
VOLTAGES 1223626512 READ 102.78 -9999 -75.39 76.20 -2.66 2.85 2.97 -4.71 -4.63 -4.98 -5.96 -5.96 7.01 -6.46 -6.46 8.50 5.49 -4.98 7.01 11.91 14.06 14.02 24.20 24.14 -9999 -9999
VOLTAGES 1223626512 OUTOFSPEC 0 0 0 0 0 0 0 0 0 0 0 0 0 0 0 0 0 0 0 0 0 0 0 0 0 0
VOLTAGES 1223626512 READ_RAW 578 -9999 319 448 376 658 664 271 275 257 207 207 871 181 181 947 793 257 871 817 872 871 925 924 -9999 -9999
VOLTAGES 1223627212 READ 103.95 -9999 -75.39 76.20 -2.66 2.85 2.97 -4.71 -4.65 -4.98 -5.96 -5.96 7.01 -6.46 -6.46 8.50 5.49 -4.96 6.99 11.91 14.06 14.02 24.26 24.14 -9999 -9999
VOLTAGES 1223627212 OUTOFSPEC 0 0 0 0 0 0 0 0 0 0 0 0 0 0 0 0 0 0 0 0 0 0 0 0 0 0
VOLTAGES 1223627212 READ_RAW 581 -9999 319 448 376 658 664 271 274 257 207 207 871 181 181 947 793 258 870 817 872 871 926 924 -9999 -9999
VOLTAGES 1223627913 READ 105.52 -9999 -75.39 76.20 -2.66 2.85 2.97 -4.71 -4.63 -4.96 -5.96 -5.96 7.01 -6.46 -6.46 8.50 5.49 -4.98 7.01 11.91 14.06 14.02 24.20 24.14 -9999 -9999
VOLTAGES 1223627913 OUTOFSPEC 0 0 0 0 0 0 0 0 0 0 0 0 0 0 0 0 0 0 0 0 0 0 0 0 0 0
VOLTAGES 1223627913 READ_RAW 585 -9999 319 448 376 658 664 271 275 258 207 207 871 181 181 947 793 257 871 817 872 871 925 924 -9999 -9999
VOLTAGES 1223628614 READ 99.66 -9999 -75.39 76.20 -2.66 2.85 2.97 -4.71 -4.63 -4.96 -5.96 -5.94 7.01 -6.46 -6.46 8.50 5.49 -4.96 6.99 11.91 14.06 14.02 24.20 24.14 -9999 -9999
VOLTAGES 1223628614 OUTOFSPEC 0 0 0 0 0 0 0 0 0 0 0 0 0 0 0 0 0 0 0 0 0 0 0 0 0 0
VOLTAGES 1223628614 READ_RAW 570 -9999 319 448 376 658 664 271 275 258 207 208 871 181 181 947 793 258 870 817 872 871 925 924 -9999 -9999
VOLTAGES 1223629051 NOM 105.12 -9999 -74.61 75.42 -2.70 2.83 2.95 -4.73 -4.65 -5.00 -6.02 -6.02 6.95 -6.48 -6.48 8.48 5.47 -5.00 6.95 11.91 13.98 13.98 23.96 23.96 -9999 -9999
VOLTAGES 1223629051 NOM_RAW 584 -9999 321 446 374 657 663 270 274 256 204 204 868 180 180 946 792 256 868 817 870 870 921 921 -9999 -9999
VOLTAGES 1223629051 TOL 19.531 4.883 20.312 2.734 0.098 0.195 0.098 0.098 0.098 0.195 0.195 0.195 0.098 0.195 0.195 0.098 0.098 0.195 0.098 0.273 0.195 0.195 0.879 0.879 0.293 0.098
VOLTAGES 1223629051 TOL_RAW 50 250 52 7 5 10 5 5 5 10 10 10 5 10 10 5 5 10 5 7 5 5 15 15 15 5
VOLTAGES 1223629349 READ 100.83 -9999 -75.39 76.20 -2.66 2.85 2.97 -4.71 -4.63 -4.96 -5.96 -5.94 7.01 -6.46 -6.46 8.50 5.51 -4.98 7.01 11.91 14.06 14.02 24.20 24.14 -9999 -9999
VOLTAGES 1223629349 OUTOFSPEC 0 0 0 0 0 0 0 0 0 0 0 0 0 0 0 0 0 0 0 0 0 0 0 0 0 0
VOLTAGES 1223629349 READ_RAW 573 -9999 319 448 376 658 664 271 275 258 207 208 871 181 181 947 794 257 871 817 872 871 925 924 -9999 -9999
VOLTAGES 1223630050 READ 102.78 -9999 -75.39 76.20 -2.66 2.85 2.97 -4.71 -4.63 -4.98 -5.96 -5.96 7.01 -6.46 -6.46 8.50 5.49 -4.98 6.99 11.91 14.06 14.02 24.26 24.14 -9999 -9999
VOLTAGES 1223630050 OUTOFSPEC 0 0 0 0 0 0 0 0 0 0 0 0 0 0 0 0 0 0 0 0 0 0 0 0 0 0
VOLTAGES 1223630050 READ_RAW 578 -9999 319 448 376 658 664 271 275 257 207 207 871 181 181 947 793 257 870 817 872 871 926 924 -9999 -9999
VOLTAGES 1223630481 BIAS -9999 -9999 -9999 -61.69 -8.83 -6.09 -6.04 -9.84 -9.80 -7.52 -8.03 -8.03 -6.54 -8.28 -8.28 -5.80 -7.29 -7.52 -6.54 -18.24 -11.29 -11.29 -16.23 -16.23 -9999 -9999
VOLTAGES 1223630779 READ 103.95 -9999 -75.39 76.20 -2.66 2.85 2.97 -4.73 -4.63 -4.96 -5.96 -5.96 7.01 -6.46 -6.46 8.50 5.49 -4.96 6.99 11.91 14.06 14.02 24.20 24.14 -9999 -9999
VOLTAGES 1223630779 OUTOFSPEC 0 0 0 0 0 0 0 0 0 0 0 0 0 0 0 0 0 0 0 0 0 0 0 0 0 0
VOLTAGES 1223630779 READ_RAW 581 -9999 319 448 376 658 664 270 275 258 207 207 871 181 181 947 793 258 870 817 872 871 925 924 -9999 -9999
VOLTAGES 1223631479 READ 105.12 -9999 -75.39 76.20 -2.66 2.85 2.97 -4.71 -4.63 -4.98 -5.96 -5.96 7.01 -6.46 -6.46 8.50 5.49 -4.98 6.99 11.91 14.06 14.02 24.20 24.14 -9999 -9999
VOLTAGES 1223631479 OUTOFSPEC 0 0 0 0 0 0 0 0 0 0 0 0 0 0 0 0 0 0 0 0 0 0 0 0 0 0
VOLTAGES 1223631479 READ_RAW 584 -9999 319 448 376 658 664 271 275 257 207 207 871 181 181 947 793 257 870 817 872 871 925 924 -9999 -9999
VOLTAGES 1223632180 READ 99.27 -9999 -75.39 76.20 -2.66 2.85 2.97 -4.71 -4.63 -4.96 -5.96 -5.96 7.01 -6.46 -6.46 8.50 5.49 -4.98 7.01 11.95 14.06 14.02 24.26 24.14 -9999 -9999
VOLTAGES 1223632180 OUTOFSPEC 0 0 0 0 0 0 0 0 0 0 0 0 0 0 0 0 0 0 0 0 0 0 0 0 0 0
VOLTAGES 1223632180 READ_RAW 569 -9999 319 448 376 658 664 271 275 258 207 207 871 181 181 947 793 257 871 818 872 871 926 924 -9999 -9999
VOLTAGES 1223632881 READ 99.27 -9999 -75.39 76.20 -2.66 2.85 2.97 -4.71 -4.63 -4.98 -5.96 -5.96 7.01 -6.46 -6.46 8.50 5.51 -4.98 6.99 11.91 14.10 14.02 24.20 24.14 -9999 -9999
VOLTAGES 1223632881 OUTOFSPEC 0 0 0 0 0 0 0 0 0 0 0 0 0 0 0 0 0 0 0 0 0 0 0 0 0 0
VOLTAGES 1223632881 READ_RAW 569 -9999 319 448 376 658 664 271 275 257 207 207 871 181 181 947 794 257 870 817 873 871 925 924 -9999 -9999
VOLTAGES 1223633583 READ 101.61 -9999 -75.39 76.20 -2.66 2.85 2.97 -4.71 -4.63 -4.96 -5.96 -5.96 7.01 -6.46 -6.46 8.50 5.49 -4.98 7.01 11.91 14.10 14.02 24.26 24.14 -9999 -9999
VOLTAGES 1223633583 OUTOFSPEC 0 0 0 0 0 0 0 0 0 0 0 0 0 0 0 0 0 0 0 0 0 0 0 0 0 0
VOLTAGES 1223633583 READ_RAW 575 -9999 319 448 376 658 664 271 275 258 207 207 871 181 181 947 793 257 871 817 873 871 926 924 -9999 -9999
VOLTAGES 1223634286 READ 103.56 -9999 -75.39 76.20 -2.68 2.85 2.97 -4.73 -4.65 -4.96 -5.96 -5.96 7.01 -6.46 -6.46 8.50 5.49 -4.98 7.01 11.91 14.06 14.02 24.26 24.14 -9999 -9999
VOLTAGES 1223634286 OUTOFSPEC 0 0 0 0 0 0 0 0 0 0 0 0 0 0 0 0 0 0 0 0 0 0 0 0 0 0
VOLTAGES 1223634286 READ_RAW 580 -9999 319 448 375 658 664 270 274 258 207 207 871 181 181 947 793 257 871 817 872 871 926 924 -9999 -9999
VOLTAGES 1223634987 READ 105.12 -9999 -75.39 76.20 -2.66 2.85 2.97 -4.71 -4.65 -4.96 -5.96 -5.96 7.01 -6.45 -6.46 8.50 5.49 -4.98 7.01 11.91 14.06 14.02 24.26 24.14 -9999 -9999
VOLTAGES 1223634987 OUTOFSPEC 0 0 0 0 0 0 0 0 0 0 0 0 0 0 0 0 0 0 0 0 0 0 0 0 0 0
VOLTAGES 1223634987 READ_RAW 584 -9999 319 448 376 658 664 271 274 258 207 207 871 182 181 947 793 257 871 817 872 871 926 924 -9999 -9999
VOLTAGES 1223635688 READ 99.27 -9999 -75.39 76.20 -2.66 2.85 2.97 -4.71 -4.65 -4.98 -5.96 -5.96 7.01 -6.46 -6.46 8.50 5.49 -4.98 7.01 11.91 14.06 14.02 24.26 24.14 -9999 -9999
VOLTAGES 1223635688 OUTOFSPEC 0 0 0 0 0 0 0 0 0 0 0 0 0 0 0 0 0 0 0 0 0 0 0 0 0 0
VOLTAGES 1223635688 READ_RAW 569 -9999 319 448 376 658 664 271 274 257 207 207 871 181 181 947 793 257 871 817 872 871 926 924 -9999 -9999
VOLTAGES 1223636389 READ 100.44 -9999 -75.39 76.59 -2.68 2.85 2.97 -4.73 -4.63 -4.96 -5.96 -5.96 7.01 -6.46 -6.46 8.50 5.49 -4.98 6.99 11.91 14.10 14.02 24.26 24.14 -9999 -9999
VOLTAGES 1223636389 OUTOFSPEC 0 0 0 0 0 0 0 0 0 0 0 0 0 0 0 0 0 0 0 0 0 0 0 0 0 0
VOLTAGES 1223636389 READ_RAW 572 -9999 319 449 375 658 664 270 275 258 207 207 871 181 181 947 793 257 870 817 873 871 926 924 -9999 -9999
VOLTAGES 1223637089 READ 102.00 -9999 -75.39 76.20 -2.66 2.85 2.97 -4.71 -4.65 -4.96 -5.96 -5.96 7.01 -6.46 -6.46 8.50 5.49 -4.98 7.01 11.91 14.10 14.02 24.26 24.14 -9999 -9999
VOLTAGES 1223637089 OUTOFSPEC 0 0 0 0 0 0 0 0 0 0 0 0 0 0 0 0 0 0 0 0 0 0 0 0 0 0
VOLTAGES 1223637089 READ_RAW 576 -9999 319 448 376 658 664 271 274 258 207 207 871 181 181 947 793 257 871 817 873 871 926 924 -9999 -9999
VOLTAGES 1223637525 NOM 105.12 -9999 -74.61 75.42 -2.70 2.83 2.95 -4.73 -4.65 -5.00 -6.02 -6.02 6.95 -6.48 -6.48 8.48 5.47 -5.00 6.95 11.91 13.98 13.98 23.96 23.96 -9999 -9999
VOLTAGES 1223637525 NOM_RAW 584 -9999 321 446 374 657 663 270 274 256 204 204 868 180 180 946 792 256 868 817 870 870 921 921 -9999 -9999
VOLTAGES 1223637525 TOL 19.531 4.883 20.312 2.734 0.098 0.195 0.098 0.098 0.098 0.195 0.195 0.195 0.098 0.195 0.195 0.098 0.098 0.195 0.098 0.273 0.195 0.195 0.879 0.879 0.293 0.098
VOLTAGES 1223637525 TOL_RAW 50 250 52 7 5 10 5 5 5 10 10 10 5 10 10 5 5 10 5 7 5 5 15 15 15 5
VOLTAGES 1223637824 READ 103.56 -9999 -75.39 76.20 -2.66 2.85 2.97 -4.71 -4.63 -4.96 -5.96 -5.96 7.01 -6.46 -6.46 8.50 5.49 -4.98 7.01 11.91 14.06 14.02 24.26 24.14 -9999 -9999
VOLTAGES 1223637824 OUTOFSPEC 0 0 0 0 0 0 0 0 0 0 0 0 0 0 0 0 0 0 0 0 0 0 0 0 0 0
VOLTAGES 1223637824 READ_RAW 580 -9999 319 448 376 658 664 271 275 258 207 207 871 181 181 947 793 257 871 817 872 871 926 924 -9999 -9999
VOLTAGES 1223638524 READ 104.34 -9999 -75.39 76.20 -2.66 2.85 2.97 -4.71 -4.65 -4.96 -5.96 -5.94 7.01 -6.46 -6.46 8.50 5.49 -4.98 7.01 11.95 14.10 14.02 24.26 24.14 -9999 -9999
VOLTAGES 1223638524 OUTOFSPEC 0 0 0 0 0 0 0 0 0 0 0 0 0 0 0 0 0 0 0 0 0 0 0 0 0 0
VOLTAGES 1223638524 READ_RAW 582 -9999 319 448 376 658 664 271 274 258 207 208 871 181 181 947 793 257 871 818 873 871 926 924 -9999 -9999
VOLTAGES 1223638956 BIAS -9999 -9999 -9999 -61.69 -8.83 -6.09 -6.04 -9.84 -9.80 -7.52 -8.03 -8.03 -6.54 -8.28 -8.28 -5.80 -7.29 -7.52 -6.54 -18.24 -11.29 -11.29 -16.23 -16.23 -9999 -9999
VOLTAGES 1223639254 READ 98.88 -9999 -75.39 76.20 -2.66 2.85 2.97 -4.73 -4.65 -4.96 -5.96 -5.96 7.01 -6.46 -6.46 8.50 5.49 -4.98 6.99 11.91 14.10 14.02 24.20 24.14 -9999 -9999
VOLTAGES 1223639254 OUTOFSPEC 0 0 0 0 0 0 0 0 0 0 0 0 0 0 0 0 0 0 0 0 0 0 0 0 0 0
VOLTAGES 1223639254 READ_RAW 568 -9999 319 448 376 658 664 270 274 258 207 207 871 181 181 947 793 257 870 817 873 871 925 924 -9999 -9999
VOLTAGES 1223639954 READ 100.44 -9999 -75.39 76.20 -2.66 2.85 2.97 -4.71 -4.63 -4.98 -5.96 -5.96 7.01 -6.46 -6.46 8.50 5.49 -4.98 7.01 11.91 14.10 14.02 24.20 24.14 -9999 -9999
VOLTAGES 1223639954 OUTOFSPEC 0 0 0 0 0 0 0 0 0 0 0 0 0 0 0 0 0 0 0 0 0 0 0 0 0 0
VOLTAGES 1223639954 READ_RAW 572 -9999 319 448 376 658 664 271 275 257 207 207 871 181 181 947 793 257 871 817 873 871 925 924 -9999 -9999
VOLTAGES 1223640656 READ 101.61 -9999 -75.39 76.20 -2.66 2.85 2.97 -4.73 -4.63 -4.98 -5.96 -5.96 7.01 -6.46 -6.46 8.50 5.49 -4.98 7.01 11.95 14.06 14.02 24.20 24.14 -9999 -9999
VOLTAGES 1223640656 OUTOFSPEC 0 0 0 0 0 0 0 0 0 0 0 0 0 0 0 0 0 0 0 0 0 0 0 0 0 0
VOLTAGES 1223640656 READ_RAW 575 -9999 319 448 376 658 664 270 275 257 207 207 871 181 181 947 793 257 871 818 872 871 925 924 -9999 -9999
VOLTAGES 1223641356 READ 103.17 -9999 -75.39 76.20 -2.68 2.85 2.97 -4.71 -4.65 -4.98 -5.96 -5.96 7.01 -6.46 -6.46 8.50 5.49 -4.98 6.99 11.91 14.10 14.02 24.26 24.14 -9999 -9999
VOLTAGES 1223641356 OUTOFSPEC 0 0 0 0 0 0 0 0 0 0 0 0 0 0 0 0 0 0 0 0 0 0 0 0 0 0
VOLTAGES 1223641356 READ_RAW 579 -9999 319 448 375 658 664 271 274 257 207 207 871 181 181 947 793 257 870 817 873 871 926 924 -9999 -9999
VOLTAGES 1223642058 READ 104.34 -9999 -75.39 76.20 -2.66 2.85 2.97 -4.73 -4.63 -4.96 -5.96 -5.96 7.01 -6.46 -6.46 8.50 5.49 -4.96 7.01 11.91 14.06 14.02 24.20 24.14 -9999 -9999
VOLTAGES 1223642058 OUTOFSPEC 0 0 0 0 0 0 0 0 0 0 0 0 0 0 0 0 0 0 0 0 0 0 0 0 0 0
VOLTAGES 1223642058 READ_RAW 582 -9999 319 448 376 658 664 270 275 258 207 207 871 181 181 947 793 258 871 817 872 871 925 924 -9999 -9999
VOLTAGES 1223642760 READ 96.92 -9999 -75.39 76.20 -2.68 2.85 2.97 -4.71 -4.63 -4.98 -5.96 -5.96 7.01 -6.46 -6.46 8.50 5.49 -4.98 6.99 11.91 14.06 14.02 24.26 24.14 -9999 -9999
VOLTAGES 1223642760 OUTOFSPEC 0 0 0 0 0 0 0 0 0 0 0 0 0 0 0 0 0 0 0 0 0 0 0 0 0 0
VOLTAGES 1223642760 READ_RAW 563 -9999 319 448 375 658 664 271 275 257 207 207 871 181 181 947 793 257 870 817 872 871 926 924 -9999 -9999
VOLTAGES 1223643460 READ 100.05 -9999 -75.39 76.20 -2.66 2.85 2.97 -4.71 -4.63 -4.98 -5.96 -5.96 7.01 -6.46 -6.46 8.50 5.49 -4.96 6.99 11.91 14.10 14.02 24.26 24.14 -9999 -9999
VOLTAGES 1223643460 OUTOFSPEC 0 0 0 0 0 0 0 0 0 0 0 0 0 0 0 0 0 0 0 0 0 0 0 0 0 0
VOLTAGES 1223643460 READ_RAW 571 -9999 319 448 376 658 664 271 275 257 207 207 871 181 181 947 793 258 870 817 873 871 926 924 -9999 -9999
VOLTAGES 1223644179 READ 101.22 -9999 -75.39 76.20 -2.66 2.85 2.97 -4.73 -4.63 -4.98 -5.96 -5.96 7.01 -6.46 -6.46 8.50 5.49 -4.98 7.01 11.91 14.10 14.02 24.20 24.14 -9999 -9999
VOLTAGES 1223644179 OUTOFSPEC 0 0 0 0 0 0 0 0 0 0 0 0 0 0 0 0 0 0 0 0 0 0 0 0 0 0
VOLTAGES 1223644179 READ_RAW 574 -9999 319 448 376 658 664 270 275 257 207 207 871 181 181 947 793 257 871 817 873 871 925 924 -9999 -9999
VOLTAGES 1223644880 READ 103.17 -9999 -75.39 76.20 -2.66 2.85 2.97 -4.71 -4.63 -4.98 -5.96 -5.96 7.01 -6.46 -6.45 8.50 5.49 -4.98 6.99 11.91 14.10 14.02 24.26 24.14 -9999 -9999
VOLTAGES 1223644880 OUTOFSPEC 0 0 0 0 0 0 0 0 0 0 0 0 0 0 0 0 0 0 0 0 0 0 0 0 0 0
VOLTAGES 1223644880 READ_RAW 579 -9999 319 448 376 658 664 271 275 257 207 207 871 181 182 947 793 257 870 817 873 871 926 924 -9999 -9999
VOLTAGES 1223645582 READ 104.34 -9999 -75.39 76.20 -2.66 2.85 2.97 -4.71 -4.63 -4.98 -5.94 -5.96 7.01 -6.46 -6.46 8.50 5.49 -4.98 7.01 11.91 14.10 14.02 24.20 24.14 -9999 -9999
VOLTAGES 1223645582 OUTOFSPEC 0 0 0 0 0 0 0 0 0 0 0 0 0 0 0 0 0 0 0 0 0 0 0 0 0 0
VOLTAGES 1223645582 READ_RAW 582 -9999 319 448 376 658 664 271 275 257 208 207 871 181 181 947 793 257 871 817 873 871 925 924 -9999 -9999
VOLTAGES 1223646019 NOM 105.12 -9999 -74.61 75.42 -2.70 2.83 2.95 -4.73 -4.65 -5.00 -6.02 -6.02 6.95 -6.48 -6.48 8.48 5.47 -5.00 6.95 11.91 13.98 13.98 23.96 23.96 -9999 -9999
VOLTAGES 1223646019 NOM_RAW 584 -9999 321 446 374 657 663 270 274 256 204 204 868 180 180 946 792 256 868 817 870 870 921 921 -9999 -9999
VOLTAGES 1223646019 TOL 19.531 4.883 20.312 2.734 0.098 0.195 0.098 0.098 0.098 0.195 0.195 0.195 0.098 0.195 0.195 0.098 0.098 0.195 0.098 0.273 0.195 0.195 0.879 0.879 0.293 0.098
VOLTAGES 1223646019 TOL_RAW 50 250 52 7 5 10 5 5 5 10 10 10 5 10 10 5 5 10 5 7 5 5 15 15 15 5
